3 Kings 3 Miler

Age Group Results

January 02, 2016


Results By Pro-Fit Event Services LLC - Belton, TX Pro-Fit Event Services LLC


Men: Top Finishers 1-12 13-19 20-29 30-39 40-49 50-59 60-69 70-79
Women: Top Finishers 1-12 13-19 20-29 30-39 40-49 50-59 60-69 70-79

3 Mile

Top

Female Open Winners

Place Name City Bib No Age Overall Total Time Pace
1 Barbara Johnson Copperas Cove TX 702 59 18 23:05.8 7:27/M
2 Melissa Simmons Georgetown TX 715 37 21 24:25.1 7:53/M
Top

Male Open Winners

Place Name City Bib No Age Overall Total Time Pace
1 Alex Cook Salado TX 791 20 1 18:01.3 5:49/M
2 Robert Pereira Salado TX 795 21 2 18:18.8 5:54/M
Top

Female Senior Winners

Place Name City Bib No Age Overall Total Time Pace
1 Linda Klaus Cedar Park TX 591 61 31 25:19.1 8:10/M
Top

Male Senior Winners

Place Name City Bib No Age Overall Total Time Pace
1 John Schuchmann Temple TX 682 69 33 25:23.7 8:11/M
Top

Female 12 and Under

Place Name City Bib No Age Overall Total Time Pace
1 Kailynn Denney 638 10 42 26:09.8 8:26/M
2 Bailey Denney Killeen TX 639 12 109 34:33.5 11:09/M
3 Clara Baxley Belton TX 612 7 119 35:17.2 11:23/M
4 Emma Lyle Round Rock TX 806 10 137 37:50.1 12:12/M
5 Allie Boone Georgetown TX 137 11 172 49:30.3 15:58/M
6 Taylor Dabney Salado TX 764 9 188 51:42.7 16:41/M
7 Ainsleigh Liebig Salado TX 697 8 189 51:44.1 16:41/M
Top

Male 12 & Under

Place Name City Bib No Age Overall Total Time Pace
1 Levi Robinson Killeen TX 799 8 20 24:14.3 7:49/M
2 Dominick Robinson Killeen TX 798 10 52 26:53.4 8:40/M
3 Jett Millsap Killeen TX 803 10 66 28:13.0 9:06/M
4 Adon Giral Salado TX 761 12 73 29:15.7 9:26/M
5 Michael Edwards Salado TX 775 11 91 31:49.5 10:16/M
6 Brooks Dabney Salado TX 765 10 104 33:54.0 10:56/M
7 Andrew Lewis Salado TX 777 11 118 35:15.4 11:22/M
8 Nolan Simecek Nolanville TX 586 7 133 37:17.5 12:02/M
9 Collin Wilson 807 12 138 38:00.6 12:15/M
10 Christian Johnson Temple TX 663 11 144 39:01.1 12:35/M
11 Dino Ritterbusch 757 3 165 45:45.3 14:45/M
Top

Female 13 to 19

Place Name City Bib No Age Overall Total Time Pace
1 Katie Kendall Salado TX 110 17 34 25:25.8 8:12/M
2 Sophia Weedman Temple TX 707 15 44 26:30.6 8:33/M
3 Ruth Perez Belton TX 581 18 62 27:55.0 9:00/M
4 Cammy Drake Temple TX 684 16 99 33:37.2 10:51/M
5 Aspen Thomas Temple TX 685 16 100 33:37.2 10:51/M
6 Marilyn Mazac Austin TX 739 18 192 52:33.4 16:57/M
Top

Male 13 to 19

Place Name City Bib No Age Overall Total Time Pace
1 Miguel Kane Salado TX 149 19 3 18:56.3 6:06/M
2 Spencer Liles Temple TX 717 16 8 20:09.4 6:30/M
3 Wade Woods Salado TX 622 15 11 21:44.4 7:01/M
4 John Thies Temple TX 658 16 15 22:47.3 7:21/M
5 Patrick Tosse Belton TX 709 14 19 23:31.3 7:35/M
6 Nathan Istre Nolanville TX 714 18 24 24:31.5 7:55/M
7 Zach Cabello Georgetown TX 781 13 60 27:42.4 8:56/M
8 Kai Brown Round Rock TX 680 14 96 33:05.8 10:40/M
9 Andrew Novotny Salado TX 620 13 121 35:41.1 11:31/M
Top

Female 20 to 29

Place Name City Bib No Age Overall Total Time Pace
1 Katherine Thornton Brookshire TX 659 26 22 24:28.1 7:54/M
2 Alecia Jarrett San Antonio TX 594 24 25 24:32.5 7:55/M
3 Lizzy Cook Salado TX 792 20 26 24:34.6 7:55/M
4 Erika Friddle Harker Heights TX 779 28 37 25:36.0 8:15/M
5 Chloe Wooldridge Austin TX 740 25 54 27:24.7 8:50/M
6 Amber Culver Temple TX 669 26 75 29:44.2 9:35/M
7 Hannah Harriger Nashville TN 750 28 77 30:01.6 9:41/M
8 Caroline Gonzalez Temple TX 787 26 85 30:57.3 9:59/M
9 Nichole Archer Copperas Cove TX 695 25 101 33:44.5 10:53/M
10 Ivy Burgos Harker Heights TX 766 26 103 33:49.6 10:55/M
11 Alline Kane Salado TX 150 23 106 34:13.7 11:02/M
12 Allyson Hoelscher Belton TX 671 26 116 34:54.0 11:15/M
13 Samantha Ambriz Temple TX 672 27 135 37:42.7 12:10/M
14 Kirsten Vandyke Temple TX 649 24 143 38:57.0 12:34/M
15 Molly Farrell Austin TX 735 22 146 39:05.3 12:36/M
16 Lisa Kelley Boerne TX 737 29 147 39:05.3 12:36/M
17 Whitney Mayo Belton TX 754 24 152 41:05.5 13:15/M
18 Courtney Mattice Granger TX 693 23 153 41:08.9 13:16/M
19 Frana Farrell Salado TX 734 29 180 50:02.6 16:08/M
20 Gloria Matthews Temple TX 742 22 181 50:03.0 16:09/M
21 Amanda Lunt Killeen TX 626 21 183 50:08.8 16:10/M
22 Emily Mazac Austin TX 738 29 193 52:33.5 16:57/M
Top

Male 20 to 29

Place Name City Bib No Age Overall Total Time Pace
1 Patrick Murray Salado TX 794 21 6 19:46.2 6:23/M
2 Ian Ash Belton TX 613 20 10 20:48.0 6:43/M
3 Kevin Thornton Brookshire TX 661 24 13 22:44.8 7:20/M
4 Marcos Rangel Thorndale TX 790 23 14 22:45.5 7:20/M
5 Edgar Burgos Harker Heights TX 767 27 16 22:51.0 7:22/M
6 Jesse Avila Temple TX 747 28 17 23:05.4 7:27/M
7 Tom Thornton Brookshire TX 660 27 27 24:48.3 8:00/M
8 Morteza Poshtkouhi Fort Hood TX 106 29 35 25:28.7 8:13/M
9 Chris Friddle Harker Heights TX 780 27 40 25:50.4 8:20/M
10 Garrett Walsingham Austin TX 741 24 55 27:24.8 8:50/M
11 Sam Petter Austin TX 736 23 56 27:25.0 8:51/M
12 Jonathan Mayo Belton TX 753 24 59 27:37.2 8:55/M
13 Devin Johnson Temple TX 770 20 69 28:27.5 9:11/M
14 Nicholas Brown Georgetown TX 733 22 83 30:50.7 9:57/M
15 Nathan Ash Belton TX 608 29 140 38:44.0 12:30/M
16 Phillip Lunt Killeen TX 627 27 194 52:59.6 17:05/M
Top

Female 30 to 39

Place Name City Bib No Age Overall Total Time Pace
1 Tyler Boyd Holland TX 719 31 36 25:35.4 8:15/M
2 Maria Mayra Orozco 808 32 39 25:44.7 8:18/M
3 Colleen Stearns Belton TX 721 33 49 26:45.9 8:38/M
4 Susan Martin Belton TX 797 37 64 27:57.5 9:01/M
5 Adrienne Ash Nashville TN 629 31 76 29:56.0 9:39/M
6 Amy Simecek Nolanville TX 585 39 80 30:28.5 9:50/M
7 Lisa Keil Harker Heights TX 665 39 88 31:28.8 10:09/M
8 Rachel Hoskins Harker Heights TX 728 30 90 31:33.5 10:11/M
9 Amber Quaranta-Leech Salado TX 599 33 92 32:03.6 10:20/M
10 Tanya Denney Killeen TX 637 31 93 32:06.6 10:21/M
11 Diana Chavez Temple TX 788 34 98 33:35.0 10:50/M
12 Katy Mueller Killeen TX 746 31 102 33:44.5 10:53/M
13 Jessica Casey Kempner TX 703 33 120 35:21.1 11:24/M
14 Tanya Harper Harker Heights TX 657 33 126 36:20.5 11:43/M
15 Kim Carter Killeen TX 634 34 129 36:36.1 11:48/M
16 Mandy Boone Georgetown TX 142 32 139 38:43.7 12:29/M
17 Sena Baxley Belton TX 610 34 142 38:54.3 12:33/M
18 Crystal Mattice Granger TX 692 39 149 39:31.4 12:45/M
19 Elvia Burg Harker Heights TX 642 32 156 41:30.9 13:23/M
20 Jeanine Spoors Temple TX 711 34 161 43:46.2 14:07/M
21 Rosalina Moore Temple TX 712 36 162 43:59.4 14:11/M
22 Roxann Patrick Salado TX 809 32 175 49:41.5 16:02/M
23 Renee Lyle Round Rock TX 804 39 184 50:11.6 16:11/M
Top

Male 30 to 39

Place Name City Bib No Age Overall Total Time Pace
1 Jonathan Castillo Killeen TX 760 34 4 19:22.0 6:15/M
2 Stephen Simecek Nolanville TX 584 38 9 20:33.7 6:38/M
3 Patrick Leech Salado TX 598 31 43 26:24.5 8:31/M
4 Stephen Stearns Belton TX 722 33 48 26:44.6 8:37/M
5 Robert Keil Harker Heights TX 666 39 87 31:28.7 10:09/M
6 Patrick Burg Harker Heights TX 641 36 97 33:15.5 10:44/M
7 Walter Hathaway Nolanville TX 751 39 112 34:41.9 11:11/M
8 Justin Baxley Belton TX 609 31 131 36:56.8 11:55/M
9 James Lyle Round Rock TX 805 39 168 46:32.4 15:01/M
10 Aaron Liebig Salado TX 698 36 169 48:58.7 15:48/M
Top

Female 40 to 49

Place Name City Bib No Age Overall Total Time Pace
1 Christine Weedman Temple TX 706 44 30 25:08.7 8:06/M
2 Corey Mescher Salado TX 772 42 51 26:48.3 8:39/M
3 Erika Salgado Temple TX 159 40 71 29:04.9 9:23/M
4 Susan Stokke Harker Heights TX 727 42 72 29:06.0 9:23/M
5 Haley Brown Round Rock TX 679 40 74 29:41.8 9:35/M
6 Maria Woods Salado TX 621 42 78 30:13.4 9:45/M
7 Nikki Sliger Belton TX 588 40 79 30:18.7 9:46/M
8 Renee Oas Salado TX 720 48 81 30:28.6 9:50/M
9 Norma Bruno Harker Heights TX 670 49 82 30:45.4 9:55/M
10 Martha Anhalt Harker Heights TX 576 46 84 30:55.2 9:58/M
11 Paula Burns Salado TX 595 46 89 31:29.8 10:09/M
12 Kristy Fredrickson Salado TX 632 41 94 32:29.1 10:29/M
13 Caren Gayle Nolanville TX 645 44 105 33:57.3 10:57/M
14 Brenda Rumbaugh Killeen TX 716 43 108 34:16.4 11:03/M
15 Debbie Morrison Killeen TX 583 49 111 34:39.2 11:11/M
16 Kristi Miller Belton TX 710 43 114 34:46.8 11:13/M
17 Kathy Daniell Salado TX 802 47 125 36:10.3 11:40/M
18 Jennifer Istre Nolanville TX 713 40 127 36:20.8 11:43/M
19 Joy Martin Temple TX 675 42 130 36:42.6 11:50/M
20 Melissa Blankenship Kempner TX 704 42 150 40:00.2 12:54/M
21 Iris Coleman Killeen TX 729 45 157 41:36.7 13:25/M
22 June Ritterbusch Salado TX 756 45 164 45:44.9 14:45/M
23 Ruth Lee Copperas Cove TX 701 48 166 46:05.4 14:52/M
24 Paige Britt Georgetown TX 744 46 170 49:27.2 15:57/M
25 Tracy McLoud Belton TX 166 47 174 49:41.3 16:02/M
26 Joni Moore Salado TX 574 49 178 49:44.6 16:03/M
27 Marie Scwhartz Pearland TX 789 44 179 49:46.3 16:03/M
28 Linda Harrison Round Rock TX 143 44 191 52:13.4 16:51/M
Top

Male 40 to 49

Place Name City Bib No Age Overall Total Time Pace
1 David Peters Austin TX 597 40 5 19:28.9 6:17/M
2 John Anderson Pflugerville TX 800 49 7 20:02.9 6:28/M
3 Scott Mescher Salado TX 773 41 12 22:00.1 7:06/M
4 David Sims Temple TX 673 49 29 24:52.4 8:01/M
5 Ed Lee Copperas Cove TX 700 43 38 25:41.7 8:17/M
6 Scott Liles Temple TX 718 48 46 26:36.7 8:35/M
7 Bob Drake Temple TX 683 47 50 26:46.6 8:38/M
8 Johnny Guardiola Belton TX 694 47 57 27:25.7 8:51/M
9 Jon Tosse Belton TX 708 48 61 27:50.2 8:59/M
10 Bill Boerger Temple TX 699 49 63 27:56.9 9:01/M
11 Joel Fredrickson Salado TX 633 44 70 28:44.9 9:16/M
12 Michael Novotny Salado TX 619 43 122 35:41.4 11:31/M
13 Johnnie Martin Temple TX 678 46 132 37:07.1 11:58/M
14 Kenneth Johnson Temple TX 662 46 145 39:02.7 12:35/M
15 Joe Martinez Rogers TX 782 41 167 46:08.4 14:53/M
16 Justin Pehoski Georgetown TX 743 44 171 49:27.4 15:57/M
Top

Female 50 to 59

Place Name City Bib No Age Overall Total Time Pace
1 Tara Ambrose Round Rock TX 755 50 23 24:29.3 7:54/M
2 Kimberly Velarde Killeen TX 600 52 47 26:43.9 8:37/M
3 Robin Hale Salado TX 758 53 65 28:10.2 9:05/M
4 Allison Hailey Georgetown TX 618 54 67 28:18.3 9:08/M
5 Dominga Anderson Killeen TX 577 51 68 28:21.9 9:09/M
6 Virginia Fulford Holland TX 730 51 86 31:15.1 10:05/M
7 Elena Kane Salado TX 151 51 107 34:13.9 11:02/M
8 Jeanette Skinner Temple TX 640 54 115 34:47.1 11:13/M
9 Diana Ambriz Temple TX 674 57 117 34:56.0 11:16/M
10 Celeste Brown Georgetown TX 732 52 123 35:47.2 11:33/M
11 Kasey Snyder Killeen TX 759 56 128 36:21.1 11:44/M
12 Karen Langford Killeen TX 589 51 141 38:49.0 12:31/M
13 Margret Hughes Salado TX 616 52 154 41:20.0 13:20/M
14 Denise Thomssen Salado TX 696 54 163 45:29.8 14:40/M
15 Angela Kay Salado TX 810 54 176 49:41.6 16:02/M
16 Mary Beth Cook Salado TX 793 57 182 50:07.7 16:10/M
17 Kristen Dabney Salado TX 762 50 190 51:45.1 16:42/M
18 Beverly Meade Temple TX 631 58 195 54:29.4 17:35/M
19 Bev Scheider Belton TX 647 59 197 58:34.7 18:54/M
Top

Male 50 to 59

Place Name City Bib No Age Overall Total Time Pace
1 Jeff Burns Salado TX 596 50 28 24:51.1 8:01/M
2 Keller Matthews Temple TX 112 58 32 25:23.7 8:11/M
3 Dave Scheider Belton TX 648 58 45 26:34.3 8:34/M
4 Luis Pedrosa Racine WI 570 50 53 26:58.9 8:42/M
5 Neal Jarrett Temple TX 592 54 58 27:29.8 8:52/M
6 Mike Wendler Holland TX 731 58 95 32:39.4 10:32/M
7 David Erickson Harker Heights TX 603 57 124 36:06.2 11:39/M
8 Charles Salter Temple TX 723 54 151 40:40.2 13:07/M
9 Kenneth Dabney Salado TX 763 51 160 43:46.0 14:07/M
10 Michael Moore Salado TX 575 50 177 49:44.2 16:03/M
11 Phillip Lunt Killeen TX 625 58 186 50:25.4 16:16/M
Top

Female 60 to 69

Place Name City Bib No Age Overall Total Time Pace
1 Cynthia Cleveland Georgetown TX 655 60 41 26:03.2 8:24/M
2 Melanie Bliss Hutto TX 571 61 113 34:45.9 11:13/M
3 Josephine Oates Killeen TX 578 67 148 39:17.7 12:40/M
4 Patsy Palmer Copperas Cove TX 705 65 155 41:24.4 13:21/M
5 Linda Rhoades Harker Heights TX 691 66 187 51:15.9 16:32/M
6 Paula Miller 783 66 196 54:30.3 17:35/M
7 Tamara Clothier Belton TX 573 60 200 1:01:09.4 19:44/M
Top

Male 60 to 69

Place Name City Bib No Age Overall Total Time Pace
1 Don Rhoades Harker Heights TX 690 66 134 37:37.8 12:08/M
2 Frank Johnson Temple TX 771 67 136 37:46.5 12:11/M
3 Charles Wilson Copperas Cove TX 587 63 159 43:19.3 13:58/M
4 Felix Hernandez Georgetown TX 161 61 173 49:31.0 15:58/M
5 Jerry Lyle Round Rock TX 582 65 185 50:22.9 16:15/M
Top

Female 70 to 79

Place Name City Bib No Age Overall Total Time Pace
1 T9E Cooper TX 677 76 198 58:36.0 18:54/M
2 Ruth Henry Temple TX 768 72 199 1:01:09.1 19:44/M
Top

Male 70 to 79

Place Name City Bib No Age Overall Total Time Pace
1 Philip Burger Austin TX 801 71 110 34:34.4 11:09/M
2 John Odom Salado TX 572 73 158 43:11.2 13:56/M
3 Leonard Henry TX 769 76 201 1:01:11.3 19:44/M